sensor_id;sensor_type;location;lat;lon;timestamp;pressure;altitude;pressure_sealevel;temperature;humidity
18784;BME280;9520;50.954;6.968;2023-04-22T00:00:12;100265.97;;;18.79;51.52
18784;BME280;9520;50.954;6.968;2023-04-22T00:00:34;100272.19;;;18.79;51.56
18784;BME280;9520;50.954;6.968;2023-04-22T00:00:56;100264.19;;;18.79;51.60
18784;BME280;9520;50.954;6.968;2023-04-22T00:01:20;100257.44;;;18.72;51.76
18784;BME280;9520;50.954;6.968;2023-04-22T00:01:42;100270.28;;;18.81;51.72
18784;BME280;9520;50.954;6.968;2023-04-22T00:02:03;100272.00;;;18.82;51.56
18784;BME280;9520;50.954;6.968;2023-04-22T00:02:25;100276.56;;;18.80;51.68
18784;BME280;9520;50.954;6.968;2023-04-22T00:02:49;100274.88;;;18.79;51.63
18784;BME280;9520;50.954;6.968;2023-04-22T00:03:11;100278.47;;;18.78;51.54
18784;BME280;9520;50.954;6.968;2023-04-22T00:03:34;100277.59;;;18.78;51.70
18784;BME280;9520;50.954;6.968;2023-04-22T00:03:56;100270.53;;;18.77;51.19
18784;BME280;9520;50.954;6.968;2023-04-22T00:04:19;100268.97;;;18.73;51.24
18784;BME280;9520;50.954;6.968;2023-04-22T00:04:42;100265.69;;;18.68;51.30
18784;BME280;9520;50.954;6.968;2023-04-22T00:05:04;100259.41;;;18.69;51.45
18784;BME280;9520;50.954;6.968;2023-04-22T00:05:27;100270.72;;;18.74;51.61
18784;BME280;9520;50.954;6.968;2023-04-22T00:05:49;100273.38;;;18.74;51.75
18784;BME280;9520;50.954;6.968;2023-04-22T00:06:11;100270.59;;;18.75;51.75
18784;BME280;9520;50.954;6.968;2023-04-22T00:06:34;100278.63;;;18.75;51.52
18784;BME280;9520;50.954;6.968;2023-04-22T00:06:56;100266.31;;;18.73;51.63
18784;BME280;9520;50.954;6.968;2023-04-22T00:07:19;100263.97;;;18.67;51.63
18784;BME280;9520;50.954;6.968;2023-04-22T00:07:40;100264.50;;;18.73;51.42
18784;BME280;9520;50.954;6.968;2023-04-22T00:08:03;100268.91;;;18.74;51.62
18784;BME280;9520;50.954;6.968;2023-04-22T00:08:25;100268.13;;;18.72;51.70
18784;BME280;9520;50.954;6.968;2023-04-22T00:08:48;100268.13;;;18.72;51.57
18784;BME280;9520;50.954;6.968;2023-04-22T00:09:09;100261.22;;;18.68;51.80
18784;BME280;9520;50.954;6.968;2023-04-22T00:09:31;100271.84;;;18.70;51.78
18784;BME280;9520;50.954;6.968;2023-04-22T00:09:53;100270.88;;;18.71;51.87
18784;BME280;9520;50.954;6.968;2023-04-22T00:10:15;100257.50;;;18.71;51.63
18784;BME280;9520;50.954;6.968;2023-04-22T00:10:37;100261.03;;;18.71;51.63
18784;BME280;9520;50.954;6.968;2023-04-22T00:10:59;100272.84;;;18.67;51.75
18784;BME280;9520;50.954;6.968;2023-04-22T00:11:21;100267.50;;;18.67;51.75
18784;BME280;9520;50.954;6.968;2023-04-22T00:11:43;100263.97;;;18.67;51.92
18784;BME280;9520;50.954;6.968;2023-04-22T00:12:05;100274.59;;;18.68;51.89
18784;BME280;9520;50.954;6.968;2023-04-22T00:12:27;100264.75;;;18.69;51.76
18784;BME280;9520;50.954;6.968;2023-04-22T00:12:48;100263.97;;;18.67;51.58
18784;BME280;9520;50.954;6.968;2023-04-22T00:13:11;100259.75;;;18.63;51.96
18784;BME280;9520;50.954;6.968;2023-04-22T00:13:32;100244.28;;;18.52;51.88
18784;BME280;9520;50.954;6.968;2023-04-22T00:13:54;100265.63;;;18.69;51.60
18784;BME280;9520;50.954;6.968;2023-04-22T00:14:16;100261.16;;;18.70;51.61
18784;BME280;9520;50.954;6.968;2023-04-22T00:14:39;100268.28;;;18.69;51.66
18784;BME280;9520;50.954;6.968;2023-04-22T00:15:01;100262.09;;;18.69;51.63
18784;BME280;9520;50.954;6.968;2023-04-22T00:15:22;100251.06;;;18.59;51.56
18784;BME280;9520;50.954;6.968;2023-04-22T00:15:45;100262.78;;;18.72;51.38
18784;BME280;9520;50.954;6.968;2023-04-22T00:16:08;100271.72;;;18.71;51.44
18784;BME280;9520;50.954;6.968;2023-04-22T00:16:30;100261.97;;;18.70;51.62
18784;BME280;9520;50.954;6.968;2023-04-22T00:16:51;100267.31;;;18.70;51.46
18784;BME280;9520;50.954;6.968;2023-04-22T00:17:13;100270.88;;;18.71;51.34
18784;BME280;9520;50.954;6.968;2023-04-22T00:17:36;100263.09;;;18.66;50.83
18784;BME280;9520;50.954;6.968;2023-04-22T00:17:58;100267.69;;;18.64;51.09
18784;BME280;9520;50.954;6.968;2023-04-22T00:18:20;100270.44;;;18.63;51.36
18784;BME280;9520;50.954;6.968;2023-04-22T00:18:42;100266.81;;;18.64;51.39
18784;BME280;9520;50.954;6.968;2023-04-22T00:19:04;100257.34;;;18.58;51.54
18784;BME280;9520;50.954;6.968;2023-04-22T00:19:26;100258.09;;;18.60;51.52
18784;BME280;9520;50.954;6.968;2023-04-22T00:19:48;100265.00;;;18.64;51.54
18784;BME280;9520;50.954;6.968;2023-04-22T00:20:10;100267.50;;;18.67;51.41
18784;BME280;9520;50.954;6.968;2023-04-22T00:20:33;100270.97;;;18.69;51.46
18784;BME280;9520;50.954;6.968;2023-04-22T00:20:56;100267.50;;;18.67;51.53
18784;BME280;9520;50.954;6.968;2023-04-22T00:21:18;100264.91;;;18.66;51.61
18784;BME280;9520;50.954;6.968;2023-04-22T00:21:41;100264.03;;;18.65;51.82
18784;BME280;9520;50.954;6.968;2023-04-22T00:22:03;100269.50;;;18.64;51.69
18784;BME280;9520;50.954;6.968;2023-04-22T00:22:26;100266.81;;;18.64;51.52
18784;BME280;9520;50.954;6.968;2023-04-22T00:22:48;100267.84;;;18.61;51.58
18784;BME280;9520;50.954;6.968;2023-04-22T00:23:10;100266.09;;;18.60;51.62
18784;BME280;9520;50.954;6.968;2023-04-22T00:23:32;100267.06;;;18.59;51.55
18784;BME280;9520;50.954;6.968;2023-04-22T00:23:54;100260.00;;;18.58;51.72
18784;BME280;9520;50.954;6.968;2023-04-22T00:24:16;100262.69;;;18.58;51.79
18784;BME280;9520;50.954;6.968;2023-04-22T00:24:38;100262.75;;;18.57;51.58
18784;BME280;9520;50.954;6.968;2023-04-22T00:24:59;100252.34;;;18.50;51.88
18784;BME280;9520;50.954;6.968;2023-04-22T00:25:21;100251.66;;;18.47;51.95
18784;BME280;9520;50.954;6.968;2023-04-22T00:25:44;100260.00;;;18.58;51.89
18784;BME280;9520;50.954;6.968;2023-04-22T00:26:05;100262.50;;;18.61;51.91
18784;BME280;9520;50.954;6.968;2023-04-22T00:26:27;100256.22;;;18.62;51.79
18784;BME280;9520;50.954;6.968;2023-04-22T00:26:49;100261.72;;;18.59;51.76
18784;BME280;9520;50.954;6.968;2023-04-22T00:27:11;100256.91;;;18.66;51.72
18784;BME280;9520;50.954;6.968;2023-04-22T00:27:33;100264.03;;;18.65;51.54
18784;BME280;9520;50.954;6.968;2023-04-22T00:27:55;100265.78;;;18.66;51.55
18784;BME280;9520;50.954;6.968;2023-04-22T00:28:16;100253.34;;;18.65;51.63
18784;BME280;9520;50.954;6.968;2023-04-22T00:29:18;100267.94;;;18.60;51.03
18784;BME280;9520;50.954;6.968;2023-04-22T00:29:40;100260.69;;;18.62;50.63
18784;BME280;9520;50.954;6.968;2023-04-22T00:30:02;100260.00;;;18.58;50.58
18784;BME280;9520;50.954;6.968;2023-04-22T00:30:25;100260.00;;;18.58;50.75
18784;BME280;9520;50.954;6.968;2023-04-22T00:30:46;100257.41;;;18.57;50.57
18784;BME280;9520;50.954;6.968;2023-04-22T00:31:08;100259.13;;;18.58;50.42
18784;BME280;9520;50.954;6.968;2023-04-22T00:31:30;100254.81;;;18.55;50.37
18784;BME280;9520;50.954;6.968;2023-04-22T00:31:52;100221.31;;;18.32;50.42
18784;BME280;9520;50.954;6.968;2023-04-22T00:32:15;100262.94;;;18.53;49.87
18784;BME280;9520;50.954;6.968;2023-04-22T00:32:36;100258.56;;;18.51;50.15
18784;BME280;9520;50.954;6.968;2023-04-22T00:32:58;100264.88;;;18.50;49.73
18784;BME280;9520;50.954;6.968;2023-04-22T00:33:20;100260.56;;;18.47;49.61
18784;BME280;9520;50.954;6.968;2023-04-22T00:33:43;100255.22;;;18.47;50.32
18784;BME280;9520;50.954;6.968;2023-04-22T00:34:04;100263.16;;;18.49;50.93
18784;BME280;9520;50.954;6.968;2023-04-22T00:34:26;100266.69;;;18.49;50.65
18784;BME280;9520;50.954;6.968;2023-04-22T00:34:47;100261.34;;;18.49;50.21
18784;BME280;9520;50.954;6.968;2023-04-22T00:35:10;100271.91;;;18.51;50.07
18784;BME280;9520;50.954;6.968;2023-04-22T00:35:33;100269.25;;;18.51;49.68
18784;BME280;9520;50.954;6.968;2023-04-22T00:35:55;100266.56;;;18.51;49.30
18784;BME280;9520;50.954;6.968;2023-04-22T00:36:16;100265.63;;;18.52;49.47
18784;BME280;9520;50.954;6.968;2023-04-22T00:36:38;100265.63;;;18.52;49.45
18784;BME280;9520;50.954;6.968;2023-04-22T00:37:01;100262.22;;;18.50;49.76
18784;BME280;9520;50.954;6.968;2023-04-22T00:37:24;100259.34;;;18.53;49.45
18784;BME280;9520;50.954;6.968;2023-04-22T00:37:46;100264.78;;;18.51;49.35
18784;BME280;9520;50.954;6.968;2023-04-22T00:38:07;100275.38;;;18.53;49.33
18784;BME280;9520;50.954;6.968;2023-04-22T00:38:29;100262.34;;;18.47;50.16
18784;BME280;9520;50.954;6.968;2023-04-22T00:38:52;100267.69;;;18.47;49.93
18784;BME280;9520;50.954;6.968;2023-04-22T00:39:13;100257.88;;;18.47;49.40
18784;BME280;9520;50.954;6.968;2023-04-22T00:39:35;100259.53;;;18.50;49.42
18784;BME280;9520;50.954;6.968;2023-04-22T00:40:00;100267.44;;;18.51;49.68
18784;BME280;9520;50.954;6.968;2023-04-22T00:40:21;100267.69;;;18.47;49.67
18784;BME280;9520;50.954;6.968;2023-04-22T00:40:44;100246.50;;;18.44;49.30
18784;BME280;9520;50.954;6.968;2023-04-22T00:41:07;100266.94;;;18.45;49.74
18784;BME280;9520;50.954;6.968;2023-04-22T00:41:29;100260.63;;;18.46;49.88
18784;BME280;9520;50.954;6.968;2023-04-22T00:41:52;100257.19;;;18.44;49.34
18784;BME280;9520;50.954;6.968;2023-04-22T00:42:15;100259.53;;;18.50;49.33
18784;BME280;9520;50.954;6.968;2023-04-22T00:42:38;100265.63;;;18.52;49.52
18784;BME280;9520;50.954;6.968;2023-04-22T00:43:00;100266.47;;;18.54;49.37
18784;BME280;9520;50.954;6.968;2023-04-22T00:43:23;100262.81;;;18.55;49.74
18784;BME280;9520;50.954;6.968;2023-04-22T00:43:45;100264.56;;;18.56;49.84
18784;BME280;9520;50.954;6.968;2023-04-22T00:44:08;100259.13;;;18.58;49.98
18784;BME280;9520;50.954;6.968;2023-04-22T00:44:31;100260.88;;;18.59;50.04
18784;BME280;9520;50.954;6.968;2023-04-22T00:44:53;100251.19;;;18.56;50.70
18784;BME280;9520;50.954;6.968;2023-04-22T00:45:15;100268.78;;;18.60;50.71
18784;BME280;9520;50.954;6.968;2023-04-22T00:45:38;100262.50;;;18.61;50.45
18784;BME280;9520;50.954;6.968;2023-04-22T00:46:00;100263.44;;;18.60;50.75
18784;BME280;9520;50.954;6.968;2023-04-22T00:46:22;100258.09;;;18.60;50.78
18784;BME280;9520;50.954;6.968;2023-04-22T00:46:44;100260.69;;;18.62;50.95
18784;BME280;9520;50.954;6.968;2023-04-22T00:47:07;100254.66;;;18.58;50.99
18784;BME280;9520;50.954;6.968;2023-04-22T00:47:30;100263.81;;;18.70;50.93
18784;BME280;9520;50.954;6.968;2023-04-22T00:47:52;100254.69;;;18.74;50.81
18784;BME280;9520;50.954;6.968;2023-04-22T00:48:14;100257.25;;;18.75;50.75
18784;BME280;9520;50.954;6.968;2023-04-22T00:48:37;100257.34;;;18.74;50.85
18784;BME280;9520;50.954;6.968;2023-04-22T00:48:59;100254.50;;;18.77;50.90
18784;BME280;9520;50.954;6.968;2023-04-22T00:49:22;100257.84;;;18.80;50.53
18784;BME280;9520;50.954;6.968;2023-04-22T00:49:45;100263.38;;;18.77;50.26
18784;BME280;9520;50.954;6.968;2023-04-22T00:50:10;100261.50;;;18.79;50.26
18784;BME280;9520;50.954;6.968;2023-04-22T00:50:32;100257.78;;;18.82;50.30
18784;BME280;9520;50.954;6.968;2023-04-22T00:50:54;100265.72;;;18.83;50.52
18784;BME280;9520;50.954;6.968;2023-04-22T00:51:15;100266.47;;;18.85;50.40
18784;BME280;9520;50.954;6.968;2023-04-22T00:51:37;100261.84;;;18.89;50.13
18784;BME280;9520;50.954;6.968;2023-04-22T00:52:01;100265.19;;;18.92;49.62
18784;BME280;9520;50.954;6.968;2023-04-22T00:52:22;100269.69;;;18.92;49.63
18784;BME280;9520;50.954;6.968;2023-04-22T00:52:44;100262.47;;;18.94;50.13
18784;BME280;9520;50.954;6.968;2023-04-22T00:53:06;100265.88;;;18.96;49.95
18784;BME280;9520;50.954;6.968;2023-04-22T00:53:27;100265.97;;;18.94;50.31
18784;BME280;9520;50.954;6.968;2023-04-22T00:53:49;100263.13;;;18.97;50.55
18784;BME280;9520;50.954;6.968;2023-04-22T00:54:12;100262.19;;;18.98;50.34
18784;BME280;9520;50.954;6.968;2023-04-22T00:54:34;100272.69;;;19.02;50.26
18784;BME280;9520;50.954;6.968;2023-04-22T00:54:56;100266.41;;;19.03;50.28
18784;BME280;9520;50.954;6.968;2023-04-22T00:55:18;100257.44;;;19.04;50.00
18784;BME280;9520;50.954;6.968;2023-04-22T00:55:40;100267.16;;;19.05;50.01
18784;BME280;9520;50.954;6.968;2023-04-22T00:56:03;100254.19;;;18.98;49.76
18784;BME280;9520;50.954;6.968;2023-04-22T00:56:26;100261.75;;;19.06;49.31
18784;BME280;9520;50.954;6.968;2023-04-22T00:56:48;100265.47;;;19.04;49.11
18784;BME280;9520;50.954;6.968;2023-04-22T00:57:10;100269.16;;;19.01;49.16
18784;BME280;9520;50.954;6.968;2023-04-22T00:57:34;100264.00;;;18.98;49.26
18784;BME280;9520;50.954;6.968;2023-04-22T00:57:57;100259.53;;;18.98;49.15
18784;BME280;9520;50.954;6.968;2023-04-22T00:58:21;100262.88;;;19.02;49.02
18784;BME280;9520;50.954;6.968;2023-04-22T00:58:46;100257.72;;;18.99;48.98
18784;BME280;9520;50.954;6.968;2023-04-22T00:59:08;100259.53;;;18.98;49.33
18784;BME280;9520;50.954;6.968;2023-04-22T00:59:31;100261.59;;;18.93;49.50
18784;BME280;9520;50.954;6.968;2023-04-22T00:59:54;100263.41;;;18.93;49.01
18784;BME280;9520;50.954;6.968;2023-04-22T01:00:16;100260.88;;;18.90;48.61
18784;BME280;9520;50.954;6.968;2023-04-22T01:00:40;100257.25;;;18.91;48.64
18784;BME280;9520;50.954;6.968;2023-04-22T01:01:02;100263.72;;;18.87;49.08
18784;BME280;9520;50.954;6.968;2023-04-22T01:01:25;100259.44;;;18.84;49.06
18784;BME280;9520;50.954;6.968;2023-04-22T01:01:47;100260.19;;;18.86;49.28
18784;BME280;9520;50.954;6.968;2023-04-22T01:02:09;100258.47;;;18.85;49.43
18784;BME280;9520;50.954;6.968;2023-04-22T01:02:32;100260.19;;;18.86;49.26
18784;BME280;9520;50.954;6.968;2023-04-22T01:02:55;100266.47;;;18.85;49.58
18784;BME280;9520;50.954;6.968;2023-04-22T01:03:18;100265.72;;;18.83;49.56
18784;BME280;9520;50.954;6.968;2023-04-22T01:03:41;100260.38;;;18.83;49.57
18784;BME280;9520;50.954;6.968;2023-04-22T01:04:03;100263.13;;;18.82;49.61
18784;BME280;9520;50.954;6.968;2023-04-22T01:04:27;100259.78;;;18.78;49.50
18784;BME280;9520;50.954;6.968;2023-04-22T01:04:49;100259.84;;;18.77;49.41
18784;BME280;9520;50.954;6.968;2023-04-22T01:05:10;100261.84;;;18.73;49.40
18784;BME280;9520;50.954;6.968;2023-04-22T01:05:32;100268.97;;;18.73;49.69
18784;BME280;9520;50.954;6.968;2023-04-22T01:05:55;100264.50;;;18.73;49.77
18784;BME280;9520;50.954;6.968;2023-04-22T01:06:18;100257.44;;;18.72;49.41
18784;BME280;9520;50.954;6.968;2023-04-22T01:06:42;100266.06;;;18.77;49.25
18784;BME280;9520;50.954;6.968;2023-04-22T01:07:05;100262.59;;;18.75;48.95
18784;BME280;9520;50.954;6.968;2023-04-22T01:07:27;100257.09;;;18.78;48.42
18784;BME280;9520;50.954;6.968;2023-04-22T01:07:50;100260.72;;;18.77;48.24
18784;BME280;9520;50.954;6.968;2023-04-22T01:08:11;100269.66;;;18.76;48.46
18784;BME280;9520;50.954;6.968;2023-04-22T01:08:33;100266.06;;;18.77;48.32
18784;BME280;9520;50.954;6.968;2023-04-22T01:08:55;100268.81;;;18.76;48.21
18784;BME280;9520;50.954;6.968;2023-04-22T01:09:17;100262.59;;;18.75;48.54
18784;BME280;9520;50.954;6.968;2023-04-22T01:09:40;100261.72;;;18.75;48.76
18784;BME280;9520;50.954;6.968;2023-04-22T01:10:03;100266.25;;;18.74;48.76
18784;BME280;9520;50.954;6.968;2023-04-22T01:10:25;100262.78;;;18.72;48.19
18784;BME280;9520;50.954;6.968;2023-04-22T01:10:46;100260.03;;;18.74;49.25
18784;BME280;9520;50.954;6.968;2023-04-22T01:11:09;100262.59;;;18.75;50.33
18784;BME280;9520;50.954;6.968;2023-04-22T01:11:31;100257.63;;;18.69;49.99
18784;BME280;9520;50.954;6.968;2023-04-22T01:11:53;100270.59;;;18.75;50.00
18784;BME280;9520;50.954;6.968;2023-04-22T01:12:17;100262.78;;;18.72;50.10
18784;BME280;9520;50.954;6.968;2023-04-22T01:12:51;100268.13;;;18.72;50.04
18784;BME280;9520;50.954;6.968;2023-04-22T01:13:41;100262.69;;;18.74;50.22
18784;BME280;9520;50.954;6.968;2023-04-22T01:14:03;100262.59;;;18.75;50.11
18784;BME280;9520;50.954;6.968;2023-04-22T01:14:26;100253.56;;;18.78;50.37
18784;BME280;9520;50.954;6.968;2023-04-22T01:14:49;100264.84;;;18.83;50.34
18784;BME280;9520;50.954;6.968;2023-04-22T01:15:11;100264.06;;;18.81;49.96
18784;BME280;9520;50.954;6.968;2023-04-22T01:15:33;100265.72;;;18.83;50.22
18784;BME280;9520;50.954;6.968;2023-04-22T01:15:55;100268.53;;;18.80;50.20
18784;BME280;9520;50.954;6.968;2023-04-22T01:16:18;100261.25;;;18.84;49.91
18784;BME280;9520;50.954;6.968;2023-04-22T01:16:41;100257.78;;;18.82;49.60
18784;BME280;9520;50.954;6.968;2023-04-22T01:17:04;100253.91;;;18.87;49.46
18784;BME280;9520;50.954;6.968;2023-04-22T01:17:27;100258.38;;;18.87;49.38
18784;BME280;9520;50.954;6.968;2023-04-22T01:17:53;100255.53;;;18.90;49.65
18784;BME280;9520;50.954;6.968;2023-04-22T01:18:15;100256.41;;;18.90;49.25
18784;BME280;9520;50.954;6.968;2023-04-22T01:18:37;100259.06;;;18.90;49.08
18784;BME280;9520;50.954;6.968;2023-04-22T01:18:59;100257.19;;;18.92;48.87
18784;BME280;9520;50.954;6.968;2023-04-22T01:19:22;100251.06;;;18.90;49.11
18784;BME280;9520;50.954;6.968;2023-04-22T01:19:44;100264.25;;;18.93;48.89
18784;BME280;9520;50.954;6.968;2023-04-22T01:20:07;100252.59;;;18.94;48.78
18784;BME280;9520;50.954;6.968;2023-04-22T01:20:30;100258.06;;;18.93;48.79
18784;BME280;9520;50.954;6.968;2023-04-22T01:20:53;100255.28;;;18.94;48.60
18784;BME280;9520;50.954;6.968;2023-04-22T01:21:15;100249.84;;;18.96;48.76
18784;BME280;9520;50.954;6.968;2023-04-22T01:21:38;100254.31;;;18.95;48.60
18784;BME280;9520;50.954;6.968;2023-04-22T01:22:01;100255.38;;;18.93;48.88
18784;BME280;9520;50.954;6.968;2023-04-22T01:22:26;100254.31;;;18.95;48.74
18784;BME280;9520;50.954;6.968;2023-04-22T01:22:54;100256.25;;;18.93;48.78
18784;BME280;9520;50.954;6.968;2023-04-22T01:23:20;100257.19;;;18.92;48.57
18784;BME280;9520;50.954;6.968;2023-04-22T01:23:41;100259.66;;;18.95;48.55
18784;BME280;9520;50.954;6.968;2023-04-22T01:24:05;100265.88;;;18.96;48.49
18784;BME280;9520;50.954;6.968;2023-04-22T01:24:27;100259.78;;;18.94;48.19
18784;BME280;9520;50.954;6.968;2023-04-22T01:24:48;100259.84;;;18.92;47.62
18784;BME280;9520;50.954;6.968;2023-04-22T01:25:11;100258.13;;;18.91;47.34
18784;BME280;9520;50.954;6.968;2023-04-22T01:25:33;100259.00;;;18.92;47.87
18784;BME280;9520;50.954;6.968;2023-04-22T01:25:56;100258.13;;;18.91;48.46
18784;BME280;9520;50.954;6.968;2023-04-22T01:26:17;100257.44;;;18.88;48.68
18784;BME280;9520;50.954;6.968;2023-04-22T01:26:39;100256.50;;;18.89;48.49
18784;BME280;9520;50.954;6.968;2023-04-22T01:27:02;100261.94;;;18.87;47.89
18784;BME280;9520;50.954;6.968;2023-04-22T01:27:24;100256.91;;;18.81;47.91
18784;BME280;9520;50.954;6.968;2023-04-22T01:27:46;100248.97;;;18.80;48.19
18784;BME280;9520;50.954;6.968;2023-04-22T01:28:08;100261.31;;;18.82;47.63
18784;BME280;9520;50.954;6.968;2023-04-22T01:28:30;100252.09;;;18.72;47.65
18784;BME280;9520;50.954;6.968;2023-04-22T01:28:53;100257.09;;;18.78;47.78
18784;BME280;9520;50.954;6.968;2023-04-22T01:29:15;100265.00;;;18.80;48.28
18784;BME280;9520;50.954;6.968;2023-04-22T01:29:37;100259.50;;;18.83;48.20
18784;BME280;9520;50.954;6.968;2023-04-22T01:29:59;100259.59;;;18.81;47.90
18784;BME280;9520;50.954;6.968;2023-04-22T01:30:21;100252.63;;;18.79;47.95
18784;BME280;9520;50.954;6.968;2023-04-22T01:30:44;100259.66;;;18.80;48.16
18784;BME280;9520;50.954;6.968;2023-04-22T01:31:05;100263.13;;;18.82;47.66
18784;BME280;9520;50.954;6.968;2023-04-22T01:31:27;100264.84;;;18.83;47.53
18784;BME280;9520;50.954;6.968;2023-04-22T01:31:51;100266.84;;;18.79;47.70
18784;BME280;9520;50.954;6.968;2023-04-22T01:32:14;100255.19;;;18.65;47.62
18784;BME280;9520;50.954;6.968;2023-04-22T01:32:36;100267.59;;;18.66;47.76
18784;BME280;9520;50.954;6.968;2023-04-22T01:32:59;100268.38;;;18.68;47.82
18784;BME280;9520;50.954;6.968;2023-04-22T01:33:21;100263.97;;;18.67;48.01
18784;BME280;9520;50.954;6.968;2023-04-22T01:33:44;100264.84;;;18.67;48.19
18784;BME280;9520;50.954;6.968;2023-04-22T01:34:07;100267.50;;;18.67;48.22
18784;BME280;9520;50.954;6.968;2023-04-22T01:34:30;100266.63;;;18.67;48.71
18784;BME280;9520;50.954;6.968;2023-04-22T01:34:52;100263.91;;;18.68;48.58
18784;BME280;9520;50.954;6.968;2023-04-22T01:35:15;100271.91;;;18.68;48.45
18784;BME280;9520;50.954;6.968;2023-04-22T01:35:36;100270.38;;;18.64;48.19
18784;BME280;9520;50.954;6.968;2023-04-22T01:35:58;100261.38;;;18.65;48.13
18784;BME280;9520;50.954;6.968;2023-04-22T01:36:20;100265.00;;;18.64;48.41
18784;BME280;9520;50.954;6.968;2023-04-22T01:36:43;100268.63;;;18.63;48.52
18784;BME280;9520;50.954;6.968;2023-04-22T01:37:05;100262.34;;;18.64;48.68
18784;BME280;9520;50.954;6.968;2023-04-22T01:37:27;100266.72;;;18.65;48.53
18784;BME280;9520;50.954;6.968;2023-04-22T01:37:49;100241.69;;;18.50;48.47
18784;BME280;9520;50.954;6.968;2023-04-22T01:38:11;100263.28;;;18.63;48.19
18784;BME280;9520;50.954;6.968;2023-04-22T01:38:35;100263.63;;;18.57;47.93
18784;BME280;9520;50.954;6.968;2023-04-22T01:38:58;100265.41;;;18.57;48.13
18784;BME280;9520;50.954;6.968;2023-04-22T01:39:20;100262.75;;;18.57;47.88
18784;BME280;9520;50.954;6.968;2023-04-22T01:39:42;100264.47;;;18.58;48.64
18784;BME280;9520;50.954;6.968;2023-04-22T01:40:05;100267.22;;;18.56;48.78
18784;BME280;9520;50.954;6.968;2023-04-22T01:40:30;100262.81;;;18.55;48.14
18784;BME280;9520;50.954;6.968;2023-04-22T01:40:52;100262.03;;;18.53;48.20
18784;BME280;9520;50.954;6.968;2023-04-22T01:41:14;100264.16;;;18.46;48.25
18784;BME280;9520;50.954;6.968;2023-04-22T01:41:37;100265.81;;;18.49;48.49
18784;BME280;9520;50.954;6.968;2023-04-22T01:41:59;100263.03;;;18.50;48.45
18784;BME280;9520;50.954;6.968;2023-04-22T01:42:22;100268.28;;;18.53;48.53
18784;BME280;9520;50.954;6.968;2023-04-22T01:42:45;100271.81;;;18.54;48.27
18784;BME280;9520;50.954;6.968;2023-04-22T01:43:09;100263.78;;;18.54;47.83
18784;BME280;9520;50.954;6.968;2023-04-22T01:43:32;100269.25;;;18.51;47.84
18784;BME280;9520;50.954;6.968;2023-04-22T01:43:56;100266.50;;;18.52;47.92
18784;BME280;9520;50.954;6.968;2023-04-22T01:44:18;100260.16;;;18.55;48.07
18784;BME280;9520;50.954;6.968;2023-04-22T01:44:40;100267.44;;;18.51;48.05
18784;BME280;9520;50.954;6.968;2023-04-22T01:45:04;100266.50;;;18.52;47.87
18784;BME280;9520;50.954;6.968;2023-04-22T01:45:26;100255.91;;;18.51;47.74
18784;BME280;9520;50.954;6.968;2023-04-22T01:45:48;100261.22;;;18.51;47.75
18784;BME280;9520;50.954;6.968;2023-04-22T01:46:11;100264.78;;;18.51;47.84
18784;BME280;9520;50.954;6.968;2023-04-22T01:46:32;100263.84;;;18.52;47.95
18784;BME280;9520;50.954;6.968;2023-04-22T01:46:54;100250.13;;;18.43;47.99
18784;BME280;9520;50.954;6.968;2023-04-22T01:47:16;100259.53;;;18.50;48.21
18784;BME280;9520;50.954;6.968;2023-04-22T01:47:38;100266.56;;;18.51;48.30
18784;BME280;9520;50.954;6.968;2023-04-22T01:48:00;100260.47;;;18.49;48.44
18784;BME280;9520;50.954;6.968;2023-04-22T01:48:22;100255.28;;;18.46;48.48
18784;BME280;9520;50.954;6.968;2023-04-22T01:48:44;100257.69;;;18.50;48.47
18784;BME280;9520;50.954;6.968;2023-04-22T01:49:10;100259.44;;;18.51;48.42
18784;BME280;9520;50.954;6.968;2023-04-22T01:49:33;100262.22;;;18.50;48.74
18784;BME280;9520;50.954;6.968;2023-04-22T01:49:55;100254.41;;;18.45;48.81
18784;BME280;9520;50.954;6.968;2023-04-22T01:50:16;100262.22;;;18.50;48.68
18784;BME280;9520;50.954;6.968;2023-04-22T01:50:39;100261.34;;;18.49;48.70
18784;BME280;9520;50.954;6.968;2023-04-22T01:51:02;100263.84;;;18.52;48.61
18784;BME280;9520;50.954;6.968;2023-04-22T01:51:23;100258.66;;;18.49;48.36
18784;BME280;9520;50.954;6.968;2023-04-22T01:51:45;100250.13;;;18.43;47.91
18784;BME280;9520;50.954;6.968;2023-04-22T01:52:07;100257.94;;;18.46;47.84
18784;BME280;9520;50.954;6.968;2023-04-22T01:52:29;100258.13;;;18.43;47.96
18784;BME280;9520;50.954;6.968;2023-04-22T01:52:52;100256.31;;;18.43;48.29
18784;BME280;9520;50.954;6.968;2023-04-22T01:53:15;100257.34;;;18.41;48.09
18784;BME280;9520;50.954;6.968;2023-04-22T01:53:39;100253.03;;;18.38;48.17
18784;BME280;9520;50.954;6.968;2023-04-22T01:54:01;100258.38;;;18.38;48.28
18784;BME280;9520;50.954;6.968;2023-04-22T01:54:24;100257.34;;;18.41;48.24
18784;BME280;9520;50.954;6.968;2023-04-22T01:54:47;100255.63;;;18.40;48.48
18784;BME280;9520;50.954;6.968;2023-04-22T01:55:09;100262.59;;;18.42;48.57
18784;BME280;9520;50.954;6.968;2023-04-22T01:55:31;100249.19;;;18.44;48.45
18784;BME280;9520;50.954;6.968;2023-04-22T01:55:56;100252.34;;;18.35;48.27
18784;BME280;9520;50.954;6.968;2023-04-22T01:56:18;100254.91;;;18.36;47.96
18784;BME280;9520;50.954;6.968;2023-04-22T01:56:40;100256.66;;;18.37;47.92
18784;BME280;9520;50.954;6.968;2023-04-22T01:57:07;100253.91;;;18.39;47.85
18784;BME280;9520;50.954;6.968;2023-04-22T01:57:31;100257.75;;;18.33;48.06
18784;BME280;9520;50.954;6.968;2023-04-22T01:57:53;100250.75;;;18.31;48.12
18784;BME280;9520;50.954;6.968;2023-04-22T01:58:15;100262.75;;;18.24;48.24
18784;BME280;9520;50.954;6.968;2023-04-22T01:58:38;100249.31;;;18.25;48.53
18784;BME280;9520;50.954;6.968;2023-04-22T01:58:59;100254.56;;;18.27;48.66
18784;BME280;9520;50.954;6.968;2023-04-22T01:59:26;100252.69;;;18.29;48.97
18784;BME280;9520;50.954;6.968;2023-04-22T01:59:47;100249.06;;;18.30;49.09
18784;BME280;9520;50.954;6.968;2023-04-22T02:00:10;100251.56;;;18.33;48.96